Creek Data

    Home     View Charts     View Raw Data     Messages

ID Distance Battery Voltage Battery Current Internal Temp Internal Humidity External Temp Solar Input rssi snr Time Stamp Record
36479 15.0 4.01 0 53 42 54 5.1 -82 8 03/31/2025 10:15 AM 18334
36478 15.1 4.06 32 54 42 52 4.5 -92 7 03/31/2025 10:00 AM 18333
36477 0.0 4.01 0 57 39 56 5.1 -83 9 03/31/2025 09:45 AM 18332
36476 15.1 4.01 0 58 38 59 5.1 -79 8 03/31/2025 09:30 AM 18331
36475 15.2 4.01 0 54 39 54 5.1 -78 7 03/31/2025 09:00 AM 18329
36474 15.1 4.01 0 53 39 54 5.1 -78 7 03/31/2025 08:45 AM 18328
36473 15.1 4.01 0 53 39 55 5.1 -80 7 03/31/2025 08:30 AM 18327
36472 15.1 4.00 0 51 39 57 5.1 -81 8 03/31/2025 08:15 AM 18326
36471 15.1 4.04 13 50 40 52 4.5 -82 6 03/31/2025 08:00 AM 18325
36470 15.0 4.07 -9 50 40 51 4.5 -80 7 03/31/2025 07:45 AM 18324
36469 15.1 4.02 0 49 40 50 4.5 -81 7 03/31/2025 07:30 AM 18323
36468 0.0 3.93 -5 49 40 50 4.5 -90 7 03/31/2025 07:15 AM 18322
36467 0.0 3.92 -10 49 40 50 4.2 -86 7 03/31/2025 07:00 AM 18321
36466 15.1 3.93 -5 49 41 50 1.7 -83 8 03/31/2025 06:45 AM 18320
36465 15.1 4.01 -5 49 41 50 0.1 -84 8 03/31/2025 06:30 AM 18319
36464 15.0 3.94 -5 49 41 50 0 -86 7 03/31/2025 06:15 AM 18318
36463 15.0 3.94 -5 50 41 50 0 -84 8 03/31/2025 06:00 AM 18317
36462 0.0 4.01 -5 50 41 51 0 -85 7 03/31/2025 05:45 AM 18316
36461 0.0 3.95 -5 51 41 51 0 -86 7 03/31/2025 05:30 AM 18315
36460 0.0 3.95 -5 51 41 51 0 -86 8 03/31/2025 05:15 AM 18314
36459 0.0 4.01 -5 51 41 51 0 -92 6 03/31/2025 05:01 AM 18313
36458 0.0 3.94 -5 51 41 51 0 -85 7 03/31/2025 04:45 AM 18312
36457 0.0 3.94 -5 53 40 53 0 -84 8 03/31/2025 04:31 AM 18311
36456 0.0 4.01 -5 53 41 54 0 -78 8 03/31/2025 04:15 AM 18310
36455 0.0 3.95 -5 53 41 54 0.1 -80 7 03/31/2025 04:00 AM 18309